Time;durP1;ratioP1;P1;durP2;ratioP2;P2;SDS_P1;SDS_P2;PMS_P1;PMS_P2;Temp;Humidity;BMP_temperature;BMP_pressure;BME280_temperature;BME280_humidity;BME280_pressure;Samples;Min_cycle;Max_cycle;Signal;HPM_P1;HPM_P2
2023/01/03 00:00:02;;;;;;;0.80;0.80;;;;;;;;;;5118377;28;20211;-62
2023/01/03 00:02:30;;;;;;;0.93;0.70;;;;;;;;;;5117873;28;20751;-63
2023/01/03 00:05:00;;;;;;;0.87;0.87;;;;;;;;;;5118173;28;20204;-63
2023/01/03 00:07:34;;;;;;;0.73;0.73;;;;;;;;;;5118074;28;20254;-62
2023/01/03 00:10:03;;;;;;;0.73;0.60;;;;;;;;;;5117632;28;20205;-62
2023/01/03 00:12:31;;;;;;;0.77;0.77;;;;;;;;;;5117233;28;20215;-62
2023/01/03 00:15:00;;;;;;;1.00;1.00;;;;;;;;;;5117919;28;20575;-63
2023/01/03 00:17:28;;;;;;;0.87;0.80;;;;;;;;;;5117901;28;20204;-62
2023/01/03 00:19:56;;;;;;;0.67;0.67;;;;;;;;;;5117993;28;20205;-62
2023/01/03 00:22:26;;;;;;;0.57;0.57;;;;;;;;;;5104722;28;20204;-63
2023/01/03 00:24:54;;;;;;;0.60;0.60;;;;;;;;;;5117713;28;20642;-62
2023/01/03 00:27:22;;;;;;;0.60;0.60;;;;;;;;;;5117775;28;20229;-62
2023/01/03 00:29:50;;;;;;;2.07;1.03;;;;;;;;;;5116912;28;20212;-62
2023/01/03 00:32:18;;;;;;;1.73;0.90;;;;;;;;;;5117904;28;20213;-62
2023/01/03 00:34:46;;;;;;;0.87;0.87;;;;;;;;;;5119851;28;20205;-62
2023/01/03 00:37:15;;;;;;;0.60;0.60;;;;;;;;;;5122141;28;20278;-62
2023/01/03 00:39:44;;;;;;;0.87;0.83;;;;;;;;;;5121375;28;20215;-62
2023/01/03 00:42:12;;;;;;;1.23;0.93;;;;;;;;;;5121613;28;20236;-62
2023/01/03 00:44:40;;;;;;;1.07;1.00;;;;;;;;;;5120166;28;20209;-62
2023/01/03 00:47:08;;;;;;;1.40;1.10;;;;;;;;;;5121689;28;20323;-62
2023/01/03 00:49:36;;;;;;;1.10;0.97;;;;;;;;;;5121244;28;20327;-62
2023/01/03 00:52:04;;;;;;;0.80;0.80;;;;;;;;;;5121528;28;20200;-62
2023/01/03 00:54:32;;;;;;;0.93;0.93;;;;;;;;;;5121180;28;20231;-62
2023/01/03 00:57:02;;;;;;;2.00;1.33;;;;;;;;;;5121539;28;20201;-62
2023/01/03 00:59:29;;;;;;;1.87;1.53;;;;;;;;;;5119906;28;20197;-62
2023/01/03 01:01:57;;;;;;;2.17;1.10;;;;;;;;;;5109337;28;20233;-62
2023/01/03 01:04:27;;;;;;;3.50;1.60;;;;;;;;;;5120029;28;20316;-62
2023/01/03 01:06:56;;;;;;;1.63;1.10;;;;;;;;;;5111820;28;20221;-62
2023/01/03 01:09:25;;;;;;;1.67;1.50;;;;;;;;;;5120513;28;20207;-62
2023/01/03 01:11:53;;;;;;;2.40;1.20;;;;;;;;;;5121447;28;20209;-62
2023/01/03 01:14:24;;;;;;;1.20;1.10;;;;;;;;;;5112062;28;20256;-62
2023/01/03 01:16:52;;;;;;;2.20;1.33;;;;;;;;;;5120788;28;20609;-62
2023/01/03 01:19:22;;;;;;;1.33;1.30;;;;;;;;;;5121173;28;20258;-62
2023/01/03 01:21:50;;;;;;;1.57;0.93;;;;;;;;;;5120873;28;20549;-62
2023/01/03 01:24:19;;;;;;;2.07;1.23;;;;;;;;;;5120956;28;20259;-62
2023/01/03 01:26:47;;;;;;;1.03;1.03;;;;;;;;;;5120622;28;20231;-62
2023/01/03 01:29:15;;;;;;;1.00;1.00;;;;;;;;;;5121146;27;20201;-62
2023/01/03 01:31:45;;;;;;;1.17;1.10;;;;;;;;;;5119893;28;20254;-62
2023/01/03 01:34:14;;;;;;;0.80;0.80;;;;;;;;;;5120676;28;20225;-62
2023/01/03 01:36:42;;;;;;;0.90;0.77;;;;;;;;;;5120854;28;20244;-62
2023/01/03 01:39:12;;;;;;;1.20;1.10;;;;;;;;;;5120402;28;20578;-62
2023/01/03 01:44:46;;;;;;;0.60;0.60;;;;;;;;;;5120654;28;20256;-62
2023/01/03 01:47:17;;;;;;;1.30;0.70;;;;;;;;;;5119975;28;20223;-62
2023/01/03 01:49:47;;;;;;;1.33;0.77;;;;;;;;;;5120761;28;20283;-62
2023/01/03 01:52:16;;;;;;;0.80;0.80;;;;;;;;;;5120772;28;20243;-62
2023/01/03 01:54:44;;;;;;;1.70;1.00;;;;;;;;;;5120044;28;20311;-62
2023/01/03 01:57:14;;;;;;;1.17;1.07;;;;;;;;;;5120185;28;20233;-62
2023/01/03 01:59:43;;;;;;;0.60;0.60;;;;;;;;;;5120145;28;20571;-62
2023/01/03 02:02:11;;;;;;;1.17;1.07;;;;;;;;;;5120178;28;20693;-62
2023/01/03 02:04:40;;;;;;;0.73;0.73;;;;;;;;;;5119243;27;20224;-62
2023/01/03 02:07:08;;;;;;;0.63;0.63;;;;;;;;;;5120142;28;20221;-62
2023/01/03 02:09:36;;;;;;;0.90;0.90;;;;;;;;;;5119872;28;20628;-62
2023/01/03 02:15:08;;;;;;;0.67;0.60;;;;;;;;;;5095297;28;20205;-62
2023/01/03 02:17:41;;;;;;;0.93;0.90;;;;;;;;;;5120285;28;20207;-63
2023/01/03 02:20:16;;;;;;;1.10;1.00;;;;;;;;;;5119623;28;20247;-62
2023/01/03 02:23:06;;;;;;;1.30;1.10;;;;;;;;;;5108239;28;20273;-62
2023/01/03 02:25:47;;;;;;;1.07;1.03;;;;;;;;;;5119619;28;20212;-62
2023/01/03 02:28:30;;;;;;;1.60;1.20;;;;;;;;;;5119966;28;20221;-62
2023/01/03 02:31:02;;;;;;;2.27;1.50;;;;;;;;;;5120007;28;20209;-62
2023/01/03 02:33:32;;;;;;;1.97;1.77;;;;;;;;;;5119682;28;20232;-62
2023/01/03 02:36:04;;;;;;;1.87;1.77;;;;;;;;;;5119858;27;20205;-62
2023/01/03 02:38:37;;;;;;;1.90;1.70;;;;;;;;;;5118194;28;20288;-62
2023/01/03 02:41:07;;;;;;;2.87;1.97;;;;;;;;;;5118842;28;20207;-62
2023/01/03 02:43:37;;;;;;;1.87;1.77;;;;;;;;;;5119489;28;20227;-62
2023/01/03 02:46:09;;;;;;;2.80;2.13;;;;;;;;;;5119352;28;20764;-62
2023/01/03 02:48:41;;;;;;;2.37;2.17;;;;;;;;;;5119272;28;20711;-62
2023/01/03 02:51:12;;;;;;;2.27;1.93;;;;;;;;;;5119008;28;20254;-62
2023/01/03 02:53:41;;;;;;;2.87;2.00;;;;;;;;;;5119249;28;20229;-62
2023/01/03 02:56:11;;;;;;;2.10;1.90;;;;;;;;;;5117472;28;20200;-62
2023/01/03 02:58:40;;;;;;;1.93;1.83;;;;;;;;;;5118591;28;20279;-62
2023/01/03 03:01:11;;;;;;;2.37;2.17;;;;;;;;;;5118954;28;20197;-62
2023/01/03 03:03:40;;;;;;;2.57;1.80;;;;;;;;;;5118845;28;20625;-62
2023/01/03 03:06:11;;;;;;;3.33;2.07;;;;;;;;;;5118967;28;20205;-63
2023/01/03 03:08:39;;;;;;;2.10;1.90;;;;;;;;;;5107653;28;20220;-62
2023/01/03 03:13:55;;;;;;;2.43;1.90;;;;;;;;;;5107945;28;20312;-62
2023/01/03 03:24:48;;;;;;;3.30;2.10;;;;;;;;;;5118264;28;20200;-62
2023/01/03 03:24:50;;;;;;;2.23;2.07;;;;;;;;;;5118637;28;20211;-62
2023/01/03 03:30:10;;;;;;;2.43;2.23;;;;;;;;;;5117912;28;20280;-62
2023/01/03 03:32:41;;;;;;;2.53;2.03;;;;;;;;;;5118302;28;20311;-62
2023/01/03 03:35:11;;;;;;;2.30;2.00;;;;;;;;;;5118760;28;20219;-62
2023/01/03 03:37:40;;;;;;;2.00;1.80;;;;;;;;;;5118389;28;20288;-62
2023/01/03 03:45:43;;;;;;;2.47;1.93;;;;;;;;;;5114420;28;20255;-62
2023/01/03 03:48:15;;;;;;;2.07;1.97;;;;;;;;;;5108590;28;20264;-62
2023/01/03 03:50:47;;;;;;;2.20;2.00;;;;;;;;;;5118136;28;20546;-62
2023/01/03 03:53:16;;;;;;;2.63;2.37;;;;;;;;;;5118492;28;20224;-62
2023/01/03 03:55:48;;;;;;;2.27;2.07;;;;;;;;;;5117817;28;20623;-62
2023/01/03 03:58:18;;;;;;;3.13;2.13;;;;;;;;;;5118108;28;20243;-62
2023/01/03 04:00:47;;;;;;;2.27;2.07;;;;;;;;;;5118183;28;20211;-62
2023/01/03 04:03:17;;;;;;;2.20;2.00;;;;;;;;;;5116239;28;20223;-62
2023/01/03 04:05:47;;;;;;;2.43;2.30;;;;;;;;;;5117329;28;20215;-62
2023/01/03 04:08:15;;;;;;;3.17;2.03;;;;;;;;;;5117973;28;20228;-62
2023/01/03 04:10:43;;;;;;;2.23;2.03;;;;;;;;;;5121894;28;20283;-62
2023/01/03 04:13:11;;;;;;;2.07;1.90;;;;;;;;;;5122092;28;20246;-62
2023/01/03 04:15:39;;;;;;;2.17;1.73;;;;;;;;;;5122211;28;20243;-62
2023/01/03 04:18:07;;;;;;;5.20;2.10;;;;;;;;;;5122362;28;20204;-62
2023/01/03 04:20:36;;;;;;;1.80;1.70;;;;;;;;;;5121233;28;20207;-62
2023/01/03 04:23:04;;;;;;;2.17;1.80;;;;;;;;;;5121996;28;20229;-62
2023/01/03 04:25:32;;;;;;;2.67;1.60;;;;;;;;;;5121755;28;20742;-62
2023/01/03 04:28:00;;;;;;;1.80;1.70;;;;;;;;;;5122124;28;20220;-62
2023/01/03 04:30:28;;;;;;;1.90;1.80;;;;;;;;;;5122174;28;20216;-62
2023/01/03 04:32:56;;;;;;;2.17;1.70;;;;;;;;;;5122376;28;20267;-62
2023/01/03 04:35:24;;;;;;;2.07;1.70;;;;;;;;;;5122163;28;20209;-62
2023/01/03 04:37:54;;;;;;;2.30;2.10;;;;;;;;;;5121128;28;20232;-62
2023/01/03 04:40:21;;;;;;;2.20;2.00;;;;;;;;;;5121915;28;20268;-62
2023/01/03 04:45:35;;;;;;;2.77;2.07;;;;;;;;;;5121726;28;20211;-62
2023/01/03 04:48:03;;;;;;;2.93;2.30;;;;;;;;;;5121746;28;20209;-62
2023/01/03 04:50:32;;;;;;;2.50;2.30;;;;;;;;;;5121466;28;20241;-62
2023/01/03 04:53:01;;;;;;;2.40;2.20;;;;;;;;;;5121730;28;20224;-62
2023/01/03 04:55:29;;;;;;;2.60;2.40;;;;;;;;;;5120638;28;20231;-62
2023/01/03 04:57:57;;;;;;;3.10;2.40;;;;;;;;;;5121138;28;20273;-62
2023/01/03 05:00:25;;;;;;;2.43;2.20;;;;;;;;;;5121308;28;20236;-62
2023/01/03 05:02:53;;;;;;;3.00;2.20;;;;;;;;;;5121347;28;20248;-62
2023/01/03 05:05:21;;;;;;;2.43;2.23;;;;;;;;;;5121270;28;20204;-62
2023/01/03 05:07:49;;;;;;;2.60;2.40;;;;;;;;;;5109998;28;20236;-62
2023/01/03 05:10:18;;;;;;;2.97;2.67;;;;;;;;;;5121227;28;20228;-62
2023/01/03 05:12:58;;;;;;;3.50;2.07;;;;;;;;;;5119698;27;20221;-62
2023/01/03 05:15:26;;;;;;;2.70;2.50;;;;;;;;;;5121478;28;20232;-62
2023/01/03 05:17:55;;;;;;;2.70;2.50;;;;;;;;;;5112036;28;20581;-62
2023/01/03 05:25:59;;;;;;;2.60;2.47;;;;;;;;;;5120450;28;20201;-62
2023/01/03 05:28:27;;;;;;;3.13;2.93;;;;;;;;;;5115848;28;20201;-62
2023/01/03 05:30:57;;;;;;;3.17;2.87;;;;;;;;;;5117946;28;20209;-62
2023/01/03 05:33:25;;;;;;;2.50;2.30;;;;;;;;;;5120176;28;20300;-62
2023/01/03 05:35:53;;;;;;;2.80;2.60;;;;;;;;;;5118037;28;20300;-62
2023/01/03 05:38:22;;;;;;;2.70;2.50;;;;;;;;;;5119022;28;20197;-62
2023/01/03 05:40:51;;;;;;;3.07;2.10;;;;;;;;;;5119895;28;20553;-62
2023/01/03 05:43:20;;;;;;;2.47;2.27;;;;;;;;;;5120119;28;20703;-62
2023/01/03 05:45:49;;;;;;;2.80;2.33;;;;;;;;;;5120413;28;20208;-62
2023/01/03 05:48:18;;;;;;;2.60;2.30;;;;;;;;;;5120467;28;20208;-62
2023/01/03 05:50:46;;;;;;;2.27;2.07;;;;;;;;;;5119481;28;20591;-62
2023/01/03 05:53:14;;;;;;;2.33;2.20;;;;;;;;;;5110508;28;20586;-62
2023/01/03 05:55:43;;;;;;;2.47;2.23;;;;;;;;;;5120250;28;20220;-62
2023/01/03 05:58:11;;;;;;;2.80;2.60;;;;;;;;;;5120128;28;20632;-62
2023/01/03 06:00:41;;;;;;;2.27;2.10;;;;;;;;;;5119011;28;20204;-62
2023/01/03 06:03:09;;;;;;;2.30;2.10;;;;;;;;;;5111724;28;20256;-62
2023/01/03 06:05:37;;;;;;;4.33;2.33;;;;;;;;;;5108401;28;20202;-62
2023/01/03 06:08:09;;;;;;;2.13;2.00;;;;;;;;;;5110951;28;20288;-62
2023/01/03 06:10:39;;;;;;;2.10;1.90;;;;;;;;;;5119984;28;20228;-62
2023/01/03 06:13:07;;;;;;;3.33;1.80;;;;;;;;;;5119890;28;20225;-62
2023/01/03 06:15:35;;;;;;;1.90;1.80;;;;;;;;;;5120009;28;20288;-62
2023/01/03 06:18:04;;;;;;;2.77;1.90;;;;;;;;;;5119578;28;20723;-62
2023/01/03 06:20:31;;;;;;;2.83;2.30;;;;;;;;;;5119092;28;20211;-62
2023/01/03 06:22:59;;;;;;;2.00;1.70;;;;;;;;;;5108063;28;20226;-62
2023/01/03 06:25:27;;;;;;;3.67;2.10;;;;;;;;;;5108471;28;20568;-62
2023/01/03 06:27:55;;;;;;;2.30;2.07;;;;;;;;;;5118812;28;20207;-62
2023/01/03 06:30:23;;;;;;;2.20;2.00;;;;;;;;;;5122743;27;20687;-62
2023/01/03 06:32:51;;;;;;;2.93;2.67;;;;;;;;;;5113048;28;20229;-62
2023/01/03 06:35:21;;;;;;;4.80;2.20;;;;;;;;;;5129072;27;20234;-62
2023/01/03 06:37:50;;;;;;;3.23;3.00;;;;;;;;;;5111622;28;20222;-62
2023/01/03 06:40:18;;;;;;;4.70;2.40;;;;;;;;;;5118918;28;20227;-62
2023/01/03 06:42:46;;;;;;;3.17;2.73;;;;;;;;;;5118636;28;20250;-61
2023/01/03 06:53:36;;;;;;;2.33;2.13;;;;;;;;;;5100778;28;20225;-62
2023/01/03 06:56:05;;;;;;;3.50;3.20;;;;;;;;;;5115024;28;20212;-62
2023/01/03 06:58:33;;;;;;;1.97;1.77;;;;;;;;;;5112133;28;20231;-61
2023/01/03 07:01:02;;;;;;;2.03;1.53;;;;;;;;;;5117215;28;20189;-62
2023/01/03 07:03:30;;;;;;;2.37;1.87;;;;;;;;;;5113312;28;20312;-62
2023/01/03 07:06:00;;;;;;;1.87;1.77;;;;;;;;;;5116227;28;20211;-62
2023/01/03 07:08:28;;;;;;;3.23;2.33;;;;;;;;;;5118621;28;20205;-62
2023/01/03 07:10:56;;;;;;;7.67;4.70;;;;;;;;;;5118581;27;20705;-62
2023/01/03 07:16:13;;;;;;;5.10;4.00;;;;;;;;;;5105127;28;20208;-62
2023/01/03 07:18:41;;;;;;;5.90;3.30;;;;;;;;;;5118809;28;20207;-62
2023/01/03 07:21:13;;;;;;;6.03;4.00;;;;;;;;;;5118485;28;20193;-62
2023/01/03 07:23:41;;;;;;;4.93;4.10;;;;;;;;;;5118255;28;20228;-62
2023/01/03 07:26:09;;;;;;;4.07;3.63;;;;;;;;;;5118333;28;20240;-62
2023/01/03 07:28:37;;;;;;;3.70;3.20;;;;;;;;;;5110386;28;20234;-62
2023/01/03 07:31:06;;;;;;;4.23;3.30;;;;;;;;;;5117448;28;20224;-62
2023/01/03 07:33:36;;;;;;;4.30;3.23;;;;;;;;;;5118160;28;20225;-62
2023/01/03 07:36:05;;;;;;;4.00;3.60;;;;;;;;;;5117954;28;20735;-62
2023/01/03 07:38:40;;;;;;;7.40;4.00;;;;;;;;;;5118701;28;20233;-62
2023/01/03 07:41:09;;;;;;;4.00;3.63;;;;;;;;;;5118394;28;20207;-62
2023/01/03 07:43:36;;;;;;;4.93;4.43;;;;;;;;;;5104549;28;20691;-62
2023/01/03 07:46:05;;;;;;;8.67;4.43;;;;;;;;;;5109308;28;20274;-61
2023/01/03 07:48:33;;;;;;;7.00;4.60;;;;;;;;;;5117018;28;20200;-62
2023/01/03 07:51:02;;;;;;;9.17;5.73;;;;;;;;;;5112289;28;20688;-61
2023/01/03 07:53:30;;;;;;;8.10;5.50;;;;;;;;;;5101545;28;20312;-62
2023/01/03 07:56:03;;;;;;;7.73;6.00;;;;;;;;;;5113212;28;20270;-61
2023/01/03 07:58:40;;;;;;;8.23;5.33;;;;;;;;;;5114411;28;20603;-60
2023/01/03 08:01:09;;;;;;;8.00;6.30;;;;;;;;;;5111276;28;20237;-60
2023/01/03 08:03:38;;;;;;;7.30;5.83;;;;;;;;;;5114533;28;20274;-60
2023/01/03 08:06:07;;;;;;;10.00;5.73;;;;;;;;;;5117229;28;20637;-60
2023/01/03 08:08:35;;;;;;;9.03;6.30;;;;;;;;;;5118107;28;20201;-60
2023/01/03 08:13:51;;;;;;;9.83;7.03;;;;;;;;;;5118368;28;20229;-60
2023/01/03 08:16:20;;;;;;;9.47;7.47;;;;;;;;;;5107548;28;20256;-59
2023/01/03 08:18:48;;;;;;;8.03;6.97;;;;;;;;;;5106046;28;20292;-60
2023/01/03 08:21:16;;;;;;;9.40;7.13;;;;;;;;;;5117874;28;20218;-60
2023/01/03 08:23:44;;;;;;;9.43;7.53;;;;;;;;;;5118112;28;20224;-60
2023/01/03 08:26:15;;;;;;;11.83;6.83;;;;;;;;;;5118279;28;20205;-59
2023/01/03 08:28:43;;;;;;;10.73;7.27;;;;;;;;;;5118108;28;20212;-59
2023/01/03 08:31:14;;;;;;;8.37;6.53;;;;;;;;;;5112732;28;20225;-59
2023/01/03 08:33:45;;;;;;;10.83;7.07;;;;;;;;;;5117617;28;20231;-60
2023/01/03 08:36:14;;;;;;;9.23;7.10;;;;;;;;;;5111992;28;20201;-62
2023/01/03 08:38:44;;;;;;;14.73;10.07;;;;;;;;;;5117732;28;20211;-61
2023/01/03 08:41:15;;;;;;;10.97;7.70;;;;;;;;;;5117691;28;20246;-61
2023/01/03 08:43:45;;;;;;;10.10;7.27;;;;;;;;;;5117707;28;20707;-62
2023/01/03 08:46:14;;;;;;;9.43;6.87;;;;;;;;;;5117162;28;20215;-61
2023/01/03 08:48:42;;;;;;;9.77;7.43;;;;;;;;;;5117760;28;20204;-61
2023/01/03 08:51:10;;;;;;;9.80;7.13;;;;;;;;;;5117270;28;20606;-61
2023/01/03 08:53:38;;;;;;;10.77;7.03;;;;;;;;;;5101751;28;20224;-61
2023/01/03 08:56:07;;;;;;;10.17;7.27;;;;;;;;;;5106500;28;20194;-61
2023/01/03 08:58:36;;;;;;;9.93;7.17;;;;;;;;;;5116978;28;20237;-61
2023/01/03 09:01:05;;;;;;;9.40;7.43;;;;;;;;;;5121522;28;20209;-62
2023/01/03 09:03:33;;;;;;;12.10;7.00;;;;;;;;;;5119772;28;20216;-60
2023/01/03 09:06:02;;;;;;;11.73;7.23;;;;;;;;;;5121181;28;20254;-62
2023/01/03 09:08:31;;;;;;;8.83;6.37;;;;;;;;;;5120146;28;20227;-62
2023/01/03 09:10:59;;;;;;;9.10;6.97;;;;;;;;;;5112982;28;20278;-62
2023/01/03 09:13:27;;;;;;;9.83;6.80;;;;;;;;;;5119196;28;20262;-62
2023/01/03 09:16:01;;;;;;;10.30;6.23;;;;;;;;;;5121364;28;20296;-62
2023/01/03 09:18:30;;;;;;;9.03;5.93;;;;;;;;;;5108005;28;20207;-62
2023/01/03 09:21:02;;;;;;;10.17;6.77;;;;;;;;;;5120795;28;20197;-62
2023/01/03 09:23:30;;;;;;;8.10;6.00;;;;;;;;;;5120838;28;20224;-62
2023/01/03 09:25:58;;;;;;;8.30;6.47;;;;;;;;;;5117166;28;20208;-62
2023/01/03 09:28:26;;;;;;;6.60;5.60;;;;;;;;;;5114373;28;20658;-62
2023/01/03 09:30:54;;;;;;;9.07;5.73;;;;;;;;;;5120838;28;20225;-62
2023/01/03 09:33:24;;;;;;;7.10;5.50;;;;;;;;;;5120830;28;20264;-62
2023/01/03 09:35:52;;;;;;;8.00;6.13;;;;;;;;;;5120838;28;20245;-62
2023/01/03 09:38:21;;;;;;;7.70;5.73;;;;;;;;;;5117266;28;20720;-60
2023/01/03 09:40:56;;;;;;;7.97;5.63;;;;;;;;;;5119617;28;20197;-62
2023/01/03 09:43:25;;;;;;;8.37;5.70;;;;;;;;;;5111607;28;20221;-62
2023/01/03 09:45:57;;;;;;;5.53;4.90;;;;;;;;;;5119435;28;20238;-62
2023/01/03 09:48:29;;;;;;;5.63;4.83;;;;;;;;;;5120861;28;20205;-62
2023/01/03 09:50:57;;;;;;;6.53;5.03;;;;;;;;;;5120140;28;20286;-62
2023/01/03 10:05:22;;;;;;;5.70;3.50;;;;;;;;;;5119565;28;20687;-61
2023/01/03 10:08:02;;;;;;;3.83;3.50;;;;;;;;;;5089015;28;20240;-62
2023/01/03 10:10:32;;;;;;;4.67;3.60;;;;;;;;;;5116106;28;20212;-63
2023/01/03 10:13:05;;;;;;;4.03;3.20;;;;;;;;;;5119693;28;20232;-62
2023/01/03 10:15:39;;;;;;;3.70;2.77;;;;;;;;;;5119382;28;20212;-62
2023/01/03 10:18:14;;;;;;;6.77;2.77;;;;;;;;;;5118738;28;20207;-62
2023/01/03 10:20:46;;;;;;;3.07;2.53;;;;;;;;;;5119193;28;20209;-62
2023/01/03 10:23:16;;;;;;;3.83;2.53;;;;;;;;;;5120853;28;20217;-62
2023/01/03 10:25:45;;;;;;;4.00;2.60;;;;;;;;;;5119526;28;20212;-62
2023/01/03 10:28:17;;;;;;;3.67;2.67;;;;;;;;;;5118560;28;20691;-62
2023/01/03 10:30:51;;;;;;;4.93;3.20;;;;;;;;;;5119470;28;20284;-62
2023/01/03 10:33:32;;;;;;;6.67;2.23;;;;;;;;;;5118160;28;20220;-63
2023/01/03 10:36:00;;;;;;;2.53;2.33;;;;;;;;;;5113887;28;20614;-62
2023/01/03 10:38:33;;;;;;;3.40;2.20;;;;;;;;;;5119595;28;20212;-62
2023/01/03 10:41:15;;;;;;;2.30;1.97;;;;;;;;;;5119345;28;20204;-62
2023/01/03 10:43:44;;;;;;;13.90;2.20;;;;;;;;;;5112231;28;20703;-62
2023/01/03 10:46:15;;;;;;;9.63;2.17;;;;;;;;;;5117210;28;20208;-62
2023/01/03 10:48:46;;;;;;;3.57;2.03;;;;;;;;;;5113357;28;20205;-62
2023/01/03 10:51:36;;;;;;;2.67;1.60;;;;;;;;;;5112239;28;20220;-62
2023/01/03 10:54:13;;;;;;;4.60;2.10;;;;;;;;;;5114369;28;20307;-62
2023/01/03 10:56:41;;;;;;;2.10;1.90;;;;;;;;;;5108640;28;20193;-62
2023/01/03 10:59:15;;;;;;;7.57;2.40;;;;;;;;;;5118807;28;20236;-62
2023/01/03 11:01:55;;;;;;;2.43;2.23;;;;;;;;;;5110871;28;20193;-62
2023/01/03 11:04:24;;;;;;;3.33;2.80;;;;;;;;;;5118628;28;20252;-62
2023/01/03 11:07:02;;;;;;;5.77;2.77;;;;;;;;;;5118745;28;20208;-60
2023/01/03 11:09:35;;;;;;;3.63;3.10;;;;;;;;;;5104659;28;20254;-59
2023/01/03 11:12:05;;;;;;;4.27;2.40;;;;;;;;;;5113571;28;20237;-60
2023/01/03 11:14:34;;;;;;;2.23;1.93;;;;;;;;;;5118601;28;20311;-61
2023/01/03 11:17:03;;;;;;;2.83;2.17;;;;;;;;;;5118448;28;20208;-61
2023/01/03 11:19:32;;;;;;;4.07;1.67;;;;;;;;;;5118089;28;20664;-62
2023/01/03 11:22:04;;;;;;;3.03;2.33;;;;;;;;;;5118552;28;20607;-61
2023/01/03 11:24:51;;;;;;;1.93;1.30;;;;;;;;;;5116600;28;20723;-62
2023/01/03 11:27:23;;;;;;;2.40;1.20;;;;;;;;;;5113554;28;20968;-62
2023/01/03 11:29:59;;;;;;;0.60;0.60;;;;;;;;;;5106055;28;20208;-62
2023/01/03 11:32:34;;;;;;;2.57;0.90;;;;;;;;;;5114011;28;20228;-62
2023/01/03 11:35:12;;;;;;;0.73;0.70;;;;;;;;;;5114641;28;20204;-63
2023/01/03 11:37:54;;;;;;;1.37;0.57;;;;;;;;;;5118325;28;20200;-62
2023/01/03 11:40:26;;;;;;;1.00;0.50;;;;;;;;;;5117826;28;20254;-63
2023/01/03 11:43:02;;;;;;;1.10;0.70;;;;;;;;;;5116451;28;20256;-63
2023/01/03 11:45:34;;;;;;;1.13;0.80;;;;;;;;;;5117884;28;20656;-62
2023/01/03 11:48:11;;;;;;;2.17;0.80;;;;;;;;;;5118413;28;20205;-62
2023/01/03 11:50:49;;;;;;;0.93;0.90;;;;;;;;;;5118436;28;20208;-63
2023/01/03 11:53:24;;;;;;;3.27;1.60;;;;;;;;;;5118296;28;20593;-61
2023/01/03 11:55:59;;;;;;;0.97;0.97;;;;;;;;;;5104127;28;20672;-61
2023/01/03 11:58:42;;;;;;;1.07;1.03;;;;;;;;;;5105633;28;20229;-62
2023/01/03 12:01:16;;;;;;;1.13;1.10;;;;;;;;;;5108518;28;20198;-62
2023/01/03 12:03:55;;;;;;;1.80;1.70;;;;;;;;;;5109229;28;20225;-62
2023/01/03 12:06:26;;;;;;;1.30;1.20;;;;;;;;;;5114248;28;20228;-63
2023/01/03 12:09:05;;;;;;;1.73;1.63;;;;;;;;;;5114220;28;20201;-61
2023/01/03 12:11:41;;;;;;;1.63;1.53;;;;;;;;;;5117849;28;20210;-62
2023/01/03 12:14:13;;;;;;;1.93;1.77;;;;;;;;;;5117782;28;20224;-63
2023/01/03 12:16:44;;;;;;;1.77;1.67;;;;;;;;;;5117555;28;20239;-62
2023/01/03 12:19:22;;;;;;;2.03;1.83;;;;;;;;;;5106183;28;20684;-62
2023/01/03 12:21:51;;;;;;;3.00;1.60;;;;;;;;;;5117425;28;20236;-61
2023/01/03 12:24:26;;;;;;;2.13;1.77;;;;;;;;;;5117327;28;20726;-62
2023/01/03 12:26:55;;;;;;;3.57;2.10;;;;;;;;;;5117569;28;20208;-62
2023/01/03 12:29:29;;;;;;;2.80;2.17;;;;;;;;;;5117493;28;20258;-62
2023/01/03 12:32:02;;;;;;;2.13;1.80;;;;;;;;;;5121534;28;20243;-62
2023/01/03 12:34:32;;;;;;;1.90;1.80;;;;;;;;;;5121562;28;20308;-62
2023/01/03 12:37:05;;;;;;;2.03;1.83;;;;;;;;;;5112705;28;20696;-63
2023/01/03 12:39:36;;;;;;;2.50;2.30;;;;;;;;;;5112693;28;20250;-63
2023/01/03 12:42:07;;;;;;;2.50;2.30;;;;;;;;;;5117081;28;20317;-62
2023/01/03 12:44:38;;;;;;;3.37;2.27;;;;;;;;;;5121599;28;20224;-63
2023/01/03 12:47:10;;;;;;;5.47;2.53;;;;;;;;;;5121361;28;20570;-62
2023/01/03 12:49:41;;;;;;;2.33;2.13;;;;;;;;;;5121607;28;20269;-62
2023/01/03 12:52:10;;;;;;;3.10;2.40;;;;;;;;;;5119022;28;20832;-62
2023/01/03 12:54:47;;;;;;;3.87;2.00;;;;;;;;;;5117700;28;20200;-63
2023/01/03 12:57:30;;;;;;;1.97;1.67;;;;;;;;;;5121428;28;20209;-62
2023/01/03 13:00:06;;;;;;;2.50;2.30;;;;;;;;;;5116669;28;20209;-62
2023/01/03 13:02:40;;;;;;;2.83;2.20;;;;;;;;;;5107968;28;20212;-62
2023/01/03 13:05:14;;;;;;;1.80;1.70;;;;;;;;;;5119567;28;20209;-61
2023/01/03 13:07:45;;;;;;;2.23;2.03;;;;;;;;;;5118474;28;20201;-63
2023/01/03 13:10:16;;;;;;;2.70;1.40;;;;;;;;;;5108968;28;20721;-63
2023/01/03 13:12:47;;;;;;;45.27;27.03;;;;;;;;;;5119531;28;20260;-63
2023/01/03 13:15:23;;;;;;;2.70;2.50;;;;;;;;;;5120137;28;20299;-63
2023/01/03 13:18:14;;;;;;;1.77;1.30;;;;;;;;;;5107195;28;20201;-63
2023/01/03 13:20:42;;;;;;;3.17;1.30;;;;;;;;;;5102660;28;20232;-63
2023/01/03 13:23:30;;;;;;;3.27;1.30;;;;;;;;;;5119335;27;20229;-63
2023/01/03 13:26:18;;;;;;;1.73;0.97;;;;;;;;;;5118693;28;20197;-63
2023/01/03 13:28:46;;;;;;;3.93;1.53;;;;;;;;;;5119549;28;20265;-62
2023/01/03 13:31:45;;;;;;;2.10;1.80;;;;;;;;;;5120008;28;20232;-62
2023/01/03 13:34:31;;;;;;;1.77;1.30;;;;;;;;;;5115078;28;20217;-62
2023/01/03 13:37:09;;;;;;;1.23;1.10;;;;;;;;;;5119844;28;20197;-62
2023/01/03 13:39:38;;;;;;;1.23;0.93;;;;;;;;;;5120352;28;20220;-62
2023/01/03 13:42:06;;;;;;;4.27;1.10;;;;;;;;;;5113636;28;20197;-62
2023/01/03 13:44:34;;;;;;;5.43;1.23;;;;;;;;;;5120429;27;20255;-62
2023/01/03 13:47:03;;;;;;;0.90;0.90;;;;;;;;;;5110550;28;20228;-63
2023/01/03 13:49:31;;;;;;;1.53;1.10;;;;;;;;;;5106904;28;20201;-62
2023/01/03 13:52:04;;;;;;;3.87;1.97;;;;;;;;;;5122098;27;20208;-61
2023/01/03 13:54:55;;;;;;;2.93;1.50;;;;;;;;;;5117087;28;20246;-60
2023/01/03 13:57:32;;;;;;;2.33;1.20;;;;;;;;;;5118753;28;20200;-60
2023/01/03 14:00:01;;;;;;;8.43;2.03;;;;;;;;;;5118594;28;20211;-62
2023/01/03 14:02:49;;;;;;;3.23;1.13;;;;;;;;;;5119458;28;20201;-62
2023/01/03 14:05:33;;;;;;;1.30;1.20;;;;;;;;;;5117961;28;20211;-62
2023/01/03 14:08:08;;;;;;;1.90;0.90;;;;;;;;;;5106655;28;20235;-62
2023/01/03 14:10:54;;;;;;;1.63;0.90;;;;;;;;;;5113848;28;20249;-62
2023/01/03 14:13:33;;;;;;;0.77;0.77;;;;;;;;;;5118220;28;20315;-62
2023/01/03 14:16:12;;;;;;;1.50;1.20;;;;;;;;;;5116103;28;20201;-61
2023/01/03 14:18:41;;;;;;;1.20;1.10;;;;;;;;;;5117082;28;20218;-62
2023/01/03 14:21:09;;;;;;;1.30;1.30;;;;;;;;;;5115276;28;20655;-62
2023/01/03 14:23:47;;;;;;;1.40;1.30;;;;;;;;;;5116902;28;20213;-62
2023/01/03 14:26:27;;;;;;;2.27;1.10;;;;;;;;;;5119799;28;20204;-62
2023/01/03 14:28:57;;;;;;;1.53;1.03;;;;;;;;;;5118467;27;20208;-62
2023/01/03 14:31:26;;;;;;;3.63;1.70;;;;;;;;;;5117496;28;20193;-62
2023/01/03 14:33:56;;;;;;;1.03;0.80;;;;;;;;;;5109432;28;20236;-62
2023/01/03 14:36:24;;;;;;;0.90;0.90;;;;;;;;;;5119519;28;20207;-62
2023/01/03 14:38:52;;;;;;;2.20;0.83;;;;;;;;;;5104497;28;20201;-63
2023/01/03 14:41:28;;;;;;;3.33;0.80;;;;;;;;;;5117024;28;20209;-62
2023/01/03 14:44:01;;;;;;;0.80;0.80;;;;;;;;;;5114218;28;20250;-63
2023/01/03 14:46:31;;;;;;;2.70;0.70;;;;;;;;;;5118417;28;20197;-63
2023/01/03 14:49:00;;;;;;;1.80;1.10;;;;;;;;;;5117225;28;20292;-62
2023/01/03 14:51:32;;;;;;;1.67;1.23;;;;;;;;;;5118866;28;20204;-62
2023/01/03 14:54:00;;;;;;;6.87;1.40;;;;;;;;;;5115729;28;20237;-62
2023/01/03 14:56:28;;;;;;;3.33;0.90;;;;;;;;;;5118598;28;20787;-62
2023/01/03 14:58:57;;;;;;;2.63;0.90;;;;;;;;;;5111998;28;20229;-63
2023/01/03 15:01:27;;;;;;;0.73;0.73;;;;;;;;;;5118423;28;20208;-62
2023/01/03 15:03:56;;;;;;;1.00;0.80;;;;;;;;;;5118563;28;20232;-62
2023/01/03 15:06:24;;;;;;;2.27;1.10;;;;;;;;;;5108933;28;20762;-62
2023/01/03 15:08:54;;;;;;;3.67;0.97;;;;;;;;;;5110137;28;20216;-61
2023/01/03 15:11:24;;;;;;;1.57;1.00;;;;;;;;;;5118424;28;20236;-61
2023/01/03 15:13:54;;;;;;;0.80;0.80;;;;;;;;;;5118420;28;20264;-62
2023/01/03 15:16:24;;;;;;;0.77;0.77;;;;;;;;;;5111476;28;20204;-61
2023/01/03 15:18:59;;;;;;;1.83;0.90;;;;;;;;;;5116583;28;20570;-63
2023/01/03 15:21:29;;;;;;;0.77;0.70;;;;;;;;;;5118209;28;20215;-62
2023/01/03 15:23:57;;;;;;;1.10;1.10;;;;;;;;;;5116279;28;20229;-61
2023/01/03 15:26:26;;;;;;;1.57;1.03;;;;;;;;;;5117145;28;20240;-63
2023/01/03 15:28:55;;;;;;;1.93;1.13;;;;;;;;;;5114111;28;20209;-63
2023/01/03 15:31:33;;;;;;;1.17;1.00;;;;;;;;;;5114523;28;20193;-63
2023/01/03 15:34:03;;;;;;;2.47;0.60;;;;;;;;;;5115201;28;20291;-63
2023/01/03 15:36:32;;;;;;;1.20;1.20;;;;;;;;;;5115138;28;20209;-63
2023/01/03 15:39:00;;;;;;;2.77;1.57;;;;;;;;;;5113392;28;20240;-63
2023/01/03 15:44:35;;;;;;;2.53;0.90;;;;;;;;;;5117202;28;20216;-63
2023/01/03 15:47:06;;;;;;;1.30;1.20;;;;;;;;;;5118067;28;20237;-64
2023/01/03 15:49:39;;;;;;;1.20;1.10;;;;;;;;;;5115074;28;20197;-63
2023/01/03 15:52:07;;;;;;;11.37;5.80;;;;;;;;;;5111187;28;20201;-63
2023/01/03 15:54:35;;;;;;;1.30;1.20;;;;;;;;;;5114865;28;20302;-62
2023/01/03 15:57:06;;;;;;;1.57;1.13;;;;;;;;;;5115396;28;20235;-62
2023/01/03 15:59:35;;;;;;;1.40;1.03;;;;;;;;;;5118151;28;20568;-62
2023/01/03 16:02:13;;;;;;;2.83;1.33;;;;;;;;;;5118051;28;20204;-62
2023/01/03 16:04:43;;;;;;;1.40;1.30;;;;;;;;;;5115087;28;20280;-62